sensor_id;sensor_type;location;lat;lon;timestamp;P1;durP1;ratioP1;P2;durP2;ratioP2
50012;SDS011;35901;48.694;9.476;2023-03-03T00:01:12;42.47;;;27.93;;
50012;SDS011;35901;48.694;9.476;2023-03-03T00:03:38;47.23;;;29.40;;
50012;SDS011;35901;48.694;9.476;2023-03-03T00:06:04;53.07;;;31.40;;
50012;SDS011;35901;48.694;9.476;2023-03-03T00:08:32;52.93;;;31.37;;
50012;SDS011;35901;48.694;9.476;2023-03-03T00:10:58;56.67;;;34.73;;
50012;SDS011;35901;48.694;9.476;2023-03-03T00:13:25;55.60;;;31.83;;
50012;SDS011;35901;48.694;9.476;2023-03-03T00:15:52;57.20;;;33.73;;
50012;SDS011;35901;48.694;9.476;2023-03-03T00:18:29;55.93;;;33.53;;
50012;SDS011;35901;48.694;9.476;2023-03-03T00:21:00;58.47;;;33.57;;
50012;SDS011;35901;48.694;9.476;2023-03-03T00:28:51;51.43;;;30.00;;
50012;SDS011;35901;48.694;9.476;2023-03-03T00:31:20;51.80;;;31.30;;
50012;SDS011;35901;48.694;9.476;2023-03-03T00:34:09;52.13;;;31.03;;
50012;SDS011;35901;48.694;9.476;2023-03-03T00:36:41;46.00;;;28.47;;
50012;SDS011;35901;48.694;9.476;2023-03-03T00:41:38;51.33;;;29.20;;
50012;SDS011;35901;48.694;9.476;2023-03-03T00:46:55;59.93;;;34.00;;
50012;SDS011;35901;48.694;9.476;2023-03-03T00:49:23;61.47;;;35.03;;
50012;SDS011;35901;48.694;9.476;2023-03-03T00:51:52;58.30;;;32.10;;
50012;SDS011;35901;48.694;9.476;2023-03-03T00:54:18;66.50;;;37.63;;
50012;SDS011;35901;48.694;9.476;2023-03-03T00:56:44;56.57;;;33.20;;
50012;SDS011;35901;48.694;9.476;2023-03-03T00:59:10;55.60;;;32.90;;
50012;SDS011;35901;48.694;9.476;2023-03-03T01:01:35;56.80;;;33.37;;
50012;SDS011;35901;48.694;9.476;2023-03-03T01:04:01;63.80;;;34.90;;
50012;SDS011;35901;48.694;9.476;2023-03-03T01:06:27;66.03;;;36.97;;
50012;SDS011;35901;48.694;9.476;2023-03-03T01:08:53;60.53;;;34.73;;
50012;SDS011;35901;48.694;9.476;2023-03-03T01:11:25;62.33;;;35.87;;
50012;SDS011;35901;48.694;9.476;2023-03-03T01:13:53;59.90;;;33.50;;
50012;SDS011;35901;48.694;9.476;2023-03-03T01:16:19;62.33;;;35.90;;
50012;SDS011;35901;48.694;9.476;2023-03-03T01:18:45;59.30;;;32.53;;
50012;SDS011;35901;48.694;9.476;2023-03-03T01:21:11;56.20;;;31.57;;
50012;SDS011;35901;48.694;9.476;2023-03-03T01:23:37;51.60;;;31.27;;
50012;SDS011;35901;48.694;9.476;2023-03-03T01:26:03;49.07;;;29.63;;
50012;SDS011;35901;48.694;9.476;2023-03-03T01:28:31;49.73;;;30.57;;
50012;SDS011;35901;48.694;9.476;2023-03-03T01:31:01;53.80;;;30.20;;
50012;SDS011;35901;48.694;9.476;2023-03-03T01:33:29;58.70;;;30.80;;
50012;SDS011;35901;48.694;9.476;2023-03-03T01:35:55;55.67;;;31.53;;
50012;SDS011;35901;48.694;9.476;2023-03-03T01:38:21;59.63;;;31.57;;
50012;SDS011;35901;48.694;9.476;2023-03-03T01:40:53;61.00;;;32.13;;
50012;SDS011;35901;48.694;9.476;2023-03-03T01:43:21;57.23;;;31.03;;
50012;SDS011;35901;48.694;9.476;2023-03-03T01:48:13;54.80;;;31.57;;
50012;SDS011;35901;48.694;9.476;2023-03-03T01:50:44;68.93;;;37.10;;
50012;SDS011;35901;48.694;9.476;2023-03-03T01:53:18;73.10;;;38.93;;
50012;SDS011;35901;48.694;9.476;2023-03-03T01:55:52;80.00;;;40.63;;
50012;SDS011;35901;48.694;9.476;2023-03-03T01:58:23;71.77;;;38.23;;
50012;SDS011;35901;48.694;9.476;2023-03-03T02:00:53;69.73;;;36.23;;
50012;SDS011;35901;48.694;9.476;2023-03-03T02:03:23;70.03;;;35.93;;
50012;SDS011;35901;48.694;9.476;2023-03-03T02:05:49;69.80;;;37.30;;
50012;SDS011;35901;48.694;9.476;2023-03-03T02:08:20;74.60;;;38.27;;
50012;SDS011;35901;48.694;9.476;2023-03-03T02:10:51;75.77;;;38.63;;
50012;SDS011;35901;48.694;9.476;2023-03-03T02:13:18;64.67;;;36.83;;
50012;SDS011;35901;48.694;9.476;2023-03-03T02:15:44;74.17;;;37.50;;
50012;SDS011;35901;48.694;9.476;2023-03-03T02:18:12;72.37;;;37.80;;
50012;SDS011;35901;48.694;9.476;2023-03-03T02:26:29;61.57;;;33.60;;
50012;SDS011;35901;48.694;9.476;2023-03-03T02:29:02;67.60;;;35.43;;
50012;SDS011;35901;48.694;9.476;2023-03-03T02:31:29;59.97;;;33.07;;
50012;SDS011;35901;48.694;9.476;2023-03-03T02:33:56;63.70;;;35.47;;
50012;SDS011;35901;48.694;9.476;2023-03-03T02:39:13;56.63;;;32.30;;
50012;SDS011;35901;48.694;9.476;2023-03-03T02:44:40;58.87;;;33.00;;
50012;SDS011;35901;48.694;9.476;2023-03-03T02:47:05;58.17;;;32.23;;
50012;SDS011;35901;48.694;9.476;2023-03-03T02:49:32;54.43;;;32.00;;
50012;SDS011;35901;48.694;9.476;2023-03-03T02:51:59;58.53;;;33.83;;
50012;SDS011;35901;48.694;9.476;2023-03-03T02:54:28;51.00;;;29.57;;
50012;SDS011;35901;48.694;9.476;2023-03-03T02:56:56;59.23;;;33.43;;
50012;SDS011;35901;48.694;9.476;2023-03-03T02:59:22;55.83;;;32.67;;
50012;SDS011;35901;48.694;9.476;2023-03-03T03:01:49;66.03;;;36.27;;
50012;SDS011;35901;48.694;9.476;2023-03-03T03:04:21;61.37;;;33.97;;
50012;SDS011;35901;48.694;9.476;2023-03-03T03:06:49;58.30;;;33.13;;
50012;SDS011;35901;48.694;9.476;2023-03-03T03:09:17;54.60;;;30.90;;
50012;SDS011;35901;48.694;9.476;2023-03-03T03:11:44;55.30;;;32.03;;
50012;SDS011;35901;48.694;9.476;2023-03-03T03:14:11;57.30;;;32.53;;
50012;SDS011;35901;48.694;9.476;2023-03-03T03:16:38;50.77;;;30.93;;
50012;SDS011;35901;48.694;9.476;2023-03-03T03:19:05;54.80;;;31.00;;
50012;SDS011;35901;48.694;9.476;2023-03-03T03:21:32;51.93;;;31.13;;
50012;SDS011;35901;48.694;9.476;2023-03-03T03:23:59;49.80;;;30.63;;
50012;SDS011;35901;48.694;9.476;2023-03-03T03:26:25;56.47;;;32.17;;
50012;SDS011;35901;48.694;9.476;2023-03-03T03:28:51;51.23;;;30.07;;
50012;SDS011;35901;48.694;9.476;2023-03-03T03:31:18;53.00;;;31.83;;
50012;SDS011;35901;48.694;9.476;2023-03-03T03:33:45;57.43;;;33.10;;
50012;SDS011;35901;48.694;9.476;2023-03-03T03:36:13;60.30;;;33.90;;
50012;SDS011;35901;48.694;9.476;2023-03-03T03:38:40;60.60;;;35.73;;
50012;SDS011;35901;48.694;9.476;2023-03-03T03:41:07;63.80;;;35.73;;
50012;SDS011;35901;48.694;9.476;2023-03-03T03:43:33;57.77;;;34.40;;
50012;SDS011;35901;48.694;9.476;2023-03-03T03:46:00;59.87;;;33.67;;
50012;SDS011;35901;48.694;9.476;2023-03-03T03:48:27;63.93;;;36.40;;
50012;SDS011;35901;48.694;9.476;2023-03-03T03:50:53;62.10;;;34.33;;
50012;SDS011;35901;48.694;9.476;2023-03-03T03:53:22;62.70;;;34.73;;
50012;SDS011;35901;48.694;9.476;2023-03-03T03:55:48;57.97;;;33.67;;
50012;SDS011;35901;48.694;9.476;2023-03-03T03:58:14;50.27;;;30.10;;
50012;SDS011;35901;48.694;9.476;2023-03-03T04:00:43;49.90;;;30.97;;
50012;SDS011;35901;48.694;9.476;2023-03-03T04:03:11;57.57;;;34.20;;
50012;SDS011;35901;48.694;9.476;2023-03-03T04:05:39;56.30;;;32.87;;
50012;SDS011;35901;48.694;9.476;2023-03-03T04:08:05;52.90;;;32.53;;
50012;SDS011;35901;48.694;9.476;2023-03-03T04:10:32;51.20;;;29.47;;
50012;SDS011;35901;48.694;9.476;2023-03-03T04:12:57;55.20;;;33.83;;
50012;SDS011;35901;48.694;9.476;2023-03-03T04:15:24;55.83;;;32.27;;
50012;SDS011;35901;48.694;9.476;2023-03-03T04:17:50;52.17;;;31.50;;
50012;SDS011;35901;48.694;9.476;2023-03-03T04:20:15;54.60;;;31.30;;
50012;SDS011;35901;48.694;9.476;2023-03-03T04:22:43;55.20;;;32.53;;
50012;SDS011;35901;48.694;9.476;2023-03-03T04:25:11;57.97;;;33.97;;
50012;SDS011;35901;48.694;9.476;2023-03-03T04:27:41;61.63;;;34.93;;
50012;SDS011;35901;48.694;9.476;2023-03-03T04:30:08;59.50;;;34.23;;
50012;SDS011;35901;48.694;9.476;2023-03-03T04:32:35;55.47;;;33.83;;
50012;SDS011;35901;48.694;9.476;2023-03-03T04:35:03;68.07;;;37.30;;
50012;SDS011;35901;48.694;9.476;2023-03-03T04:37:29;55.33;;;32.27;;
50012;SDS011;35901;48.694;9.476;2023-03-03T04:39:55;60.80;;;32.97;;
50012;SDS011;35901;48.694;9.476;2023-03-03T04:42:21;61.17;;;33.20;;
50012;SDS011;35901;48.694;9.476;2023-03-03T04:44:47;53.93;;;31.60;;
50012;SDS011;35901;48.694;9.476;2023-03-03T04:47:13;52.87;;;30.17;;
50012;SDS011;35901;48.694;9.476;2023-03-03T04:49:39;49.73;;;30.53;;
50012;SDS011;35901;48.694;9.476;2023-03-03T04:52:05;52.30;;;30.87;;
50012;SDS011;35901;48.694;9.476;2023-03-03T04:54:31;59.00;;;34.93;;
50012;SDS011;35901;48.694;9.476;2023-03-03T04:56:56;55.03;;;33.00;;
50012;SDS011;35901;48.694;9.476;2023-03-03T04:59:23;49.97;;;30.67;;
50012;SDS011;35901;48.694;9.476;2023-03-03T05:01:49;53.07;;;31.87;;
50012;SDS011;35901;48.694;9.476;2023-03-03T05:04:15;53.87;;;32.13;;
50012;SDS011;35901;48.694;9.476;2023-03-03T05:06:46;54.10;;;30.57;;
50012;SDS011;35901;48.694;9.476;2023-03-03T05:09:12;58.63;;;34.10;;
50012;SDS011;35901;48.694;9.476;2023-03-03T05:11:37;63.27;;;36.73;;
50012;SDS011;35901;48.694;9.476;2023-03-03T05:14:03;61.33;;;35.40;;
50012;SDS011;35901;48.694;9.476;2023-03-03T05:16:29;58.10;;;32.97;;
50012;SDS011;35901;48.694;9.476;2023-03-03T05:18:54;55.07;;;33.60;;
50012;SDS011;35901;48.694;9.476;2023-03-03T05:21:20;54.90;;;33.37;;
50012;SDS011;35901;48.694;9.476;2023-03-03T05:23:46;50.67;;;31.87;;
50012;SDS011;35901;48.694;9.476;2023-03-03T05:26:11;55.30;;;32.77;;
50012;SDS011;35901;48.694;9.476;2023-03-03T05:28:37;56.43;;;32.73;;
50012;SDS011;35901;48.694;9.476;2023-03-03T05:31:03;49.17;;;30.93;;
50012;SDS011;35901;48.694;9.476;2023-03-03T05:33:28;52.47;;;32.00;;
50012;SDS011;35901;48.694;9.476;2023-03-03T05:35:55;51.23;;;30.90;;
50012;SDS011;35901;48.694;9.476;2023-03-03T05:38:22;52.73;;;31.97;;
50012;SDS011;35901;48.694;9.476;2023-03-03T05:40:48;50.37;;;31.30;;
50012;SDS011;35901;48.694;9.476;2023-03-03T05:43:14;50.00;;;30.33;;
50012;SDS011;35901;48.694;9.476;2023-03-03T05:45:40;52.00;;;32.07;;
50012;SDS011;35901;48.694;9.476;2023-03-03T05:48:06;54.13;;;33.87;;
50012;SDS011;35901;48.694;9.476;2023-03-03T05:50:32;57.17;;;34.17;;
50012;SDS011;35901;48.694;9.476;2023-03-03T05:52:57;59.93;;;34.83;;
50012;SDS011;35901;48.694;9.476;2023-03-03T05:55:24;59.80;;;35.63;;
50012;SDS011;35901;48.694;9.476;2023-03-03T05:57:50;52.63;;;32.90;;
50012;SDS011;35901;48.694;9.476;2023-03-03T06:00:16;55.63;;;32.07;;
50012;SDS011;35901;48.694;9.476;2023-03-03T06:02:42;51.63;;;32.13;;
50012;SDS011;35901;48.694;9.476;2023-03-03T06:05:08;49.90;;;30.70;;
50012;SDS011;35901;48.694;9.476;2023-03-03T06:07:34;48.73;;;31.07;;
50012;SDS011;35901;48.694;9.476;2023-03-03T06:10:02;57.50;;;34.57;;
50012;SDS011;35901;48.694;9.476;2023-03-03T06:12:31;50.37;;;30.90;;
50012;SDS011;35901;48.694;9.476;2023-03-03T06:14:56;50.00;;;29.90;;
50012;SDS011;35901;48.694;9.476;2023-03-03T06:17:22;52.43;;;32.40;;
50012;SDS011;35901;48.694;9.476;2023-03-03T06:19:48;54.93;;;32.43;;
50012;SDS011;35901;48.694;9.476;2023-03-03T06:22:13;56.63;;;33.10;;
50012;SDS011;35901;48.694;9.476;2023-03-03T06:24:39;57.77;;;33.73;;
50012;SDS011;35901;48.694;9.476;2023-03-03T06:27:05;61.17;;;35.93;;
50012;SDS011;35901;48.694;9.476;2023-03-03T06:29:30;55.00;;;33.00;;
50012;SDS011;35901;48.694;9.476;2023-03-03T06:31:56;56.17;;;34.40;;
50012;SDS011;35901;48.694;9.476;2023-03-03T06:34:22;50.97;;;30.97;;
50012;SDS011;35901;48.694;9.476;2023-03-03T06:36:47;48.67;;;31.73;;
50012;SDS011;35901;48.694;9.476;2023-03-03T06:39:13;53.17;;;31.40;;
50012;SDS011;35901;48.694;9.476;2023-03-03T06:41:39;56.03;;;32.43;;
50012;SDS011;35901;48.694;9.476;2023-03-03T06:44:05;51.93;;;31.27;;
50012;SDS011;35901;48.694;9.476;2023-03-03T06:46:30;54.43;;;32.03;;
50012;SDS011;35901;48.694;9.476;2023-03-03T06:48:56;51.03;;;31.37;;
50012;SDS011;35901;48.694;9.476;2023-03-03T06:51:23;49.93;;;31.80;;
50012;SDS011;35901;48.694;9.476;2023-03-03T06:53:57;52.93;;;32.63;;
50012;SDS011;35901;48.694;9.476;2023-03-03T06:56:26;53.17;;;31.40;;
50012;SDS011;35901;48.694;9.476;2023-03-03T06:58:53;51.27;;;32.80;;
50012;SDS011;35901;48.694;9.476;2023-03-03T07:01:22;53.30;;;31.90;;
50012;SDS011;35901;48.694;9.476;2023-03-03T07:03:48;53.63;;;33.13;;
50012;SDS011;35901;48.694;9.476;2023-03-03T07:06:17;53.17;;;32.63;;
50012;SDS011;35901;48.694;9.476;2023-03-03T07:08:47;51.20;;;32.53;;
50012;SDS011;35901;48.694;9.476;2023-03-03T07:11:15;48.93;;;31.93;;
50012;SDS011;35901;48.694;9.476;2023-03-03T07:13:48;49.03;;;30.13;;
50012;SDS011;35901;48.694;9.476;2023-03-03T07:16:17;49.23;;;32.00;;
50012;SDS011;35901;48.694;9.476;2023-03-03T07:18:46;50.30;;;30.03;;
50012;SDS011;35901;48.694;9.476;2023-03-03T07:23:48;48.37;;;31.00;;
50012;SDS011;35901;48.694;9.476;2023-03-03T07:26:16;48.13;;;30.73;;
50012;SDS011;35901;48.694;9.476;2023-03-03T07:28:49;48.23;;;30.47;;
50012;SDS011;35901;48.694;9.476;2023-03-03T07:31:25;45.87;;;29.73;;
50012;SDS011;35901;48.694;9.476;2023-03-03T07:36:54;45.73;;;29.90;;
50012;SDS011;35901;48.694;9.476;2023-03-03T07:39:32;44.40;;;29.00;;
50012;SDS011;35901;48.694;9.476;2023-03-03T07:45:01;47.23;;;30.33;;
50012;SDS011;35901;48.694;9.476;2023-03-03T07:47:37;49.00;;;30.63;;
50012;SDS011;35901;48.694;9.476;2023-03-03T07:50:11;46.30;;;31.23;;
50012;SDS011;35901;48.694;9.476;2023-03-03T07:52:49;48.93;;;30.77;;
50012;SDS011;35901;48.694;9.476;2023-03-03T07:58:05;45.10;;;29.80;;
50012;SDS011;35901;48.694;9.476;2023-03-03T08:03:40;43.70;;;29.87;;
50012;SDS011;35901;48.694;9.476;2023-03-03T08:06:56;42.03;;;28.83;;
50012;SDS011;35901;48.694;9.476;2023-03-03T08:11:34;46.70;;;31.03;;
50012;SDS011;35901;48.694;9.476;2023-03-03T08:14:07;43.43;;;28.47;;
50012;SDS011;35901;48.694;9.476;2023-03-03T08:16:36;41.27;;;27.13;;
50012;SDS011;35901;48.694;9.476;2023-03-03T08:19:03;43.07;;;29.33;;
50012;SDS011;35901;48.694;9.476;2023-03-03T08:21:30;44.07;;;30.63;;
50012;SDS011;35901;48.694;9.476;2023-03-03T08:23:57;46.13;;;30.27;;
50012;SDS011;35901;48.694;9.476;2023-03-03T08:26:23;42.20;;;29.73;;
50012;SDS011;35901;48.694;9.476;2023-03-03T08:28:50;43.10;;;29.77;;
50012;SDS011;35901;48.694;9.476;2023-03-03T08:31:16;43.30;;;28.63;;
50012;SDS011;35901;48.694;9.476;2023-03-03T08:33:42;42.10;;;28.37;;
50012;SDS011;35901;48.694;9.476;2023-03-03T08:36:08;42.20;;;29.30;;
50012;SDS011;35901;48.694;9.476;2023-03-03T08:38:34;42.27;;;28.97;;
50012;SDS011;35901;48.694;9.476;2023-03-03T08:41:00;42.07;;;29.13;;
50012;SDS011;35901;48.694;9.476;2023-03-03T08:43:26;45.20;;;30.73;;
50012;SDS011;35901;48.694;9.476;2023-03-03T08:45:53;42.40;;;28.80;;
50012;SDS011;35901;48.694;9.476;2023-03-03T08:48:22;39.27;;;27.07;;
50012;SDS011;35901;48.694;9.476;2023-03-03T08:50:48;38.93;;;26.77;;
50012;SDS011;35901;48.694;9.476;2023-03-03T08:53:14;40.60;;;28.20;;
50012;SDS011;35901;48.694;9.476;2023-03-03T08:55:41;42.80;;;27.93;;
50012;SDS011;35901;48.694;9.476;2023-03-03T08:58:06;45.07;;;29.17;;
50012;SDS011;35901;48.694;9.476;2023-03-03T09:00:32;36.57;;;26.47;;
50012;SDS011;35901;48.694;9.476;2023-03-03T09:02:58;41.90;;;28.30;;
50012;SDS011;35901;48.694;9.476;2023-03-03T09:05:24;42.57;;;27.37;;
50012;SDS011;35901;48.694;9.476;2023-03-03T09:07:50;38.33;;;27.57;;
50012;SDS011;35901;48.694;9.476;2023-03-03T09:10:19;40.53;;;28.03;;
50012;SDS011;35901;48.694;9.476;2023-03-03T09:12:51;41.47;;;28.57;;
50012;SDS011;35901;48.694;9.476;2023-03-03T09:17:51;39.27;;;27.00;;
50012;SDS011;35901;48.694;9.476;2023-03-03T09:25:55;35.73;;;26.20;;
50012;SDS011;35901;48.694;9.476;2023-03-03T09:28:26;37.07;;;26.73;;
50012;SDS011;35901;48.694;9.476;2023-03-03T09:30:55;34.30;;;24.13;;
50012;SDS011;35901;48.694;9.476;2023-03-03T09:33:27;35.13;;;26.43;;
50012;SDS011;35901;48.694;9.476;2023-03-03T09:36:02;35.07;;;25.93;;
50012;SDS011;35901;48.694;9.476;2023-03-03T09:38:38;33.90;;;25.07;;
50012;SDS011;35901;48.694;9.476;2023-03-03T09:41:28;34.37;;;24.27;;
50012;SDS011;35901;48.694;9.476;2023-03-03T10:18:41;33.43;;;26.17;;
50012;SDS011;35901;48.694;9.476;2023-03-03T10:21:30;35.53;;;27.37;;
50012;SDS011;35901;48.694;9.476;2023-03-03T10:24:22;35.83;;;26.03;;
50012;SDS011;35901;48.694;9.476;2023-03-03T10:29:45;38.93;;;26.73;;
50012;SDS011;35901;48.694;9.476;2023-03-03T10:32:42;36.73;;;26.97;;
50012;SDS011;35901;48.694;9.476;2023-03-03T10:55:16;31.13;;;26.23;;
50012;SDS011;35901;48.694;9.476;2023-03-03T11:00:30;29.63;;;23.53;;
50012;SDS011;35901;48.694;9.476;2023-03-03T11:03:13;32.33;;;25.20;;
50012;SDS011;35901;48.694;9.476;2023-03-03T11:06:25;31.57;;;27.07;;
50012;SDS011;35901;48.694;9.476;2023-03-03T11:12:24;30.67;;;26.47;;
50012;SDS011;35901;48.694;9.476;2023-03-03T11:14:44;30.37;;;24.43;;
50012;SDS011;35901;48.694;9.476;2023-03-03T11:22:43;31.53;;;25.13;;
50012;SDS011;35901;48.694;9.476;2023-03-03T11:25:24;35.00;;;26.83;;
50012;SDS011;35901;48.694;9.476;2023-03-03T11:34:00;34.27;;;27.13;;
50012;SDS011;35901;48.694;9.476;2023-03-03T11:36:44;31.77;;;25.90;;
50012;SDS011;35901;48.694;9.476;2023-03-03T11:39:33;33.40;;;25.50;;
50012;SDS011;35901;48.694;9.476;2023-03-03T11:42:39;35.73;;;26.57;;
50012;SDS011;35901;48.694;9.476;2023-03-03T11:45:19;35.03;;;27.27;;
50012;SDS011;35901;48.694;9.476;2023-03-03T11:47:56;34.47;;;25.57;;
50012;SDS011;35901;48.694;9.476;2023-03-03T11:56:27;32.40;;;25.83;;
50012;SDS011;35901;48.694;9.476;2023-03-03T11:59:01;34.00;;;26.53;;
50012;SDS011;35901;48.694;9.476;2023-03-03T12:01:32;37.30;;;28.30;;
50012;SDS011;35901;48.694;9.476;2023-03-03T12:04:14;34.37;;;27.93;;
50012;SDS011;35901;48.694;9.476;2023-03-03T12:09:49;32.73;;;25.47;;
50012;SDS011;35901;48.694;9.476;2023-03-03T12:12:41;29.43;;;23.57;;
50012;SDS011;35901;48.694;9.476;2023-03-03T12:15:30;33.40;;;27.17;;
50012;SDS011;35901;48.694;9.476;2023-03-03T12:26:12;29.30;;;23.77;;
50012;SDS011;35901;48.694;9.476;2023-03-03T12:28:49;30.57;;;25.40;;
50012;SDS011;35901;48.694;9.476;2023-03-03T12:31:28;29.60;;;23.90;;
50012;SDS011;35901;48.694;9.476;2023-03-03T12:37:06;30.87;;;25.40;;
50012;SDS011;35901;48.694;9.476;2023-03-03T12:44:58;32.63;;;26.57;;
50012;SDS011;35901;48.694;9.476;2023-03-03T12:47:45;31.60;;;25.63;;
50012;SDS011;35901;48.694;9.476;2023-03-03T12:56:03;31.93;;;26.37;;
50012;SDS011;35901;48.694;9.476;2023-03-03T13:15:00;36.07;;;27.67;;
50012;SDS011;35901;48.694;9.476;2023-03-03T13:20:17;35.87;;;28.17;;
50012;SDS011;35901;48.694;9.476;2023-03-03T13:23:06;34.07;;;28.60;;
50012;SDS011;35901;48.694;9.476;2023-03-03T13:25:57;37.20;;;27.90;;
50012;SDS011;35901;48.694;9.476;2023-03-03T13:28:33;34.53;;;27.37;;
50012;SDS011;35901;48.694;9.476;2023-03-03T13:31:07;31.23;;;26.03;;
50012;SDS011;35901;48.694;9.476;2023-03-03T13:33:39;34.13;;;26.27;;
50012;SDS011;35901;48.694;9.476;2023-03-03T13:36:14;29.17;;;24.73;;
50012;SDS011;35901;48.694;9.476;2023-03-03T13:38:45;35.20;;;26.43;;
50012;SDS011;35901;48.694;9.476;2023-03-03T13:41:23;31.13;;;25.33;;
50012;SDS011;35901;48.694;9.476;2023-03-03T13:43:54;33.33;;;27.17;;
50012;SDS011;35901;48.694;9.476;2023-03-03T13:49:03;33.97;;;24.67;;
50012;SDS011;35901;48.694;9.476;2023-03-03T13:51:36;34.70;;;25.67;;
50012;SDS011;35901;48.694;9.476;2023-03-03T13:56:52;31.70;;;25.63;;
50012;SDS011;35901;48.694;9.476;2023-03-03T13:59:38;27.30;;;22.60;;
50012;SDS011;35901;48.694;9.476;2023-03-03T14:02:38;29.50;;;22.40;;
50012;SDS011;35901;48.694;9.476;2023-03-03T14:05:25;27.80;;;23.20;;
50012;SDS011;35901;48.694;9.476;2023-03-03T14:08:02;30.03;;;24.63;;
50012;SDS011;35901;48.694;9.476;2023-03-03T14:13:36;33.27;;;25.70;;
50012;SDS011;35901;48.694;9.476;2023-03-03T14:16:45;32.27;;;26.73;;
50012;SDS011;35901;48.694;9.476;2023-03-03T14:19:17;30.47;;;25.00;;
50012;SDS011;35901;48.694;9.476;2023-03-03T14:22:13;31.23;;;24.77;;
50012;SDS011;35901;48.694;9.476;2023-03-03T14:30:30;32.70;;;26.63;;
50012;SDS011;35901;48.694;9.476;2023-03-03T14:35:42;31.77;;;25.57;;
50012;SDS011;35901;48.694;9.476;2023-03-03T14:38:15;31.33;;;24.67;;
50012;SDS011;35901;48.694;9.476;2023-03-03T14:40:43;31.03;;;24.87;;
50012;SDS011;35901;48.694;9.476;2023-03-03T14:43:23;29.60;;;24.67;;
50012;SDS011;35901;48.694;9.476;2023-03-03T14:46:21;31.07;;;25.43;;
50012;SDS011;35901;48.694;9.476;2023-03-03T14:48:57;30.50;;;23.87;;
50012;SDS011;35901;48.694;9.476;2023-03-03T14:51:48;30.90;;;25.43;;
50012;SDS011;35901;48.694;9.476;2023-03-03T14:54:24;31.73;;;25.43;;
50012;SDS011;35901;48.694;9.476;2023-03-03T14:57:15;27.80;;;22.63;;
50012;SDS011;35901;48.694;9.476;2023-03-03T14:59:54;29.87;;;23.17;;
50012;SDS011;35901;48.694;9.476;2023-03-03T15:02:39;24.93;;;20.47;;
50012;SDS011;35901;48.694;9.476;2023-03-03T15:07:42;24.13;;;20.03;;
50012;SDS011;35901;48.694;9.476;2023-03-03T15:10:10;26.47;;;20.47;;
50012;SDS011;35901;48.694;9.476;2023-03-03T15:12:41;25.83;;;20.60;;
50012;SDS011;35901;48.694;9.476;2023-03-03T15:15:17;24.20;;;20.27;;
50012;SDS011;35901;48.694;9.476;2023-03-03T15:20:36;23.80;;;19.93;;
50012;SDS011;35901;48.694;9.476;2023-03-03T15:29:13;26.00;;;20.80;;
50012;SDS011;35901;48.694;9.476;2023-03-03T15:34:42;24.23;;;19.97;;
50012;SDS011;35901;48.694;9.476;2023-03-03T15:37:34;23.47;;;19.63;;
50012;SDS011;35901;48.694;9.476;2023-03-03T15:48:20;22.90;;;18.63;;
50012;SDS011;35901;48.694;9.476;2023-03-03T15:56:32;23.07;;;18.07;;
50012;SDS011;35901;48.694;9.476;2023-03-03T16:01:58;24.37;;;19.30;;
50012;SDS011;35901;48.694;9.476;2023-03-03T16:04:35;24.90;;;18.97;;
50012;SDS011;35901;48.694;9.476;2023-03-03T16:09:43;21.90;;;17.67;;
50012;SDS011;35901;48.694;9.476;2023-03-03T16:15:22;25.17;;;18.97;;
50012;SDS011;35901;48.694;9.476;2023-03-03T16:34:29;27.20;;;19.47;;
50012;SDS011;35901;48.694;9.476;2023-03-03T16:39:58;27.30;;;20.13;;
50012;SDS011;35901;48.694;9.476;2023-03-03T16:42:34;24.93;;;18.60;;
50012;SDS011;35901;48.694;9.476;2023-03-03T16:55:58;26.47;;;19.40;;
50012;SDS011;35901;48.694;9.476;2023-03-03T17:01:19;24.47;;;19.60;;
50012;SDS011;35901;48.694;9.476;2023-03-03T17:06:30;30.57;;;20.53;;
50012;SDS011;35901;48.694;9.476;2023-03-03T17:09:18;29.50;;;21.07;;
50012;SDS011;35901;48.694;9.476;2023-03-03T17:17:00;31.87;;;23.20;;
50012;SDS011;35901;48.694;9.476;2023-03-03T17:19:54;35.07;;;24.63;;
50012;SDS011;35901;48.694;9.476;2023-03-03T17:31:28;29.60;;;21.17;;
50012;SDS011;35901;48.694;9.476;2023-03-03T17:37:07;31.03;;;20.53;;
50012;SDS011;35901;48.694;9.476;2023-03-03T17:42:56;29.33;;;20.10;;
50012;SDS011;35901;48.694;9.476;2023-03-03T17:45:55;29.43;;;20.57;;
50012;SDS011;35901;48.694;9.476;2023-03-03T17:48:37;30.90;;;21.57;;
50012;SDS011;35901;48.694;9.476;2023-03-03T17:51:30;30.70;;;21.77;;
50012;SDS011;35901;48.694;9.476;2023-03-03T17:54:25;30.63;;;20.73;;
50012;SDS011;35901;48.694;9.476;2023-03-03T17:57:09;31.27;;;20.23;;
50012;SDS011;35901;48.694;9.476;2023-03-03T18:05:14;32.83;;;22.50;;
50012;SDS011;35901;48.694;9.476;2023-03-03T18:10:41;35.13;;;23.23;;
50012;SDS011;35901;48.694;9.476;2023-03-03T18:13:17;31.47;;;21.47;;
50012;SDS011;35901;48.694;9.476;2023-03-03T18:15:56;33.53;;;23.17;;
50012;SDS011;35901;48.694;9.476;2023-03-03T18:21:03;30.60;;;21.40;;
50012;SDS011;35901;48.694;9.476;2023-03-03T18:23:41;35.50;;;22.43;;
50012;SDS011;35901;48.694;9.476;2023-03-03T18:26:28;33.77;;;22.23;;
50012;SDS011;35901;48.694;9.476;2023-03-03T18:29:10;35.47;;;23.33;;
50012;SDS011;35901;48.694;9.476;2023-03-03T18:31:45;34.80;;;22.43;;
50012;SDS011;35901;48.694;9.476;2023-03-03T18:42:12;33.77;;;22.00;;
50012;SDS011;35901;48.694;9.476;2023-03-03T18:45:06;33.00;;;22.47;;
50012;SDS011;35901;48.694;9.476;2023-03-03T18:50:49;33.50;;;21.20;;
50012;SDS011;35901;48.694;9.476;2023-03-03T18:53:29;35.70;;;21.27;;
50012;SDS011;35901;48.694;9.476;2023-03-03T18:56:00;32.77;;;21.37;;
50012;SDS011;35901;48.694;9.476;2023-03-03T18:58:28;32.83;;;22.10;;
50012;SDS011;35901;48.694;9.476;2023-03-03T19:09:08;36.30;;;23.07;;
50012;SDS011;35901;48.694;9.476;2023-03-03T19:11:41;35.67;;;22.70;;
50012;SDS011;35901;48.694;9.476;2023-03-03T19:14:17;40.77;;;26.03;;
50012;SDS011;35901;48.694;9.476;2023-03-03T19:16:44;40.27;;;26.43;;
50012;SDS011;35901;48.694;9.476;2023-03-03T19:19:18;36.97;;;24.17;;
50012;SDS011;35901;48.694;9.476;2023-03-03T19:22:13;49.03;;;29.20;;
50012;SDS011;35901;48.694;9.476;2023-03-03T19:30:12;44.20;;;27.90;;
50012;SDS011;35901;48.694;9.476;2023-03-03T19:33:06;44.27;;;28.00;;
50012;SDS011;35901;48.694;9.476;2023-03-03T19:38:43;48.93;;;30.23;;
50012;SDS011;35901;48.694;9.476;2023-03-03T19:41:21;49.17;;;29.30;;
50012;SDS011;35901;48.694;9.476;2023-03-03T19:57:56;42.77;;;25.30;;
50012;SDS011;35901;48.694;9.476;2023-03-03T20:00:40;41.33;;;25.63;;
50012;SDS011;35901;48.694;9.476;2023-03-03T20:09:02;47.80;;;28.37;;
50012;SDS011;35901;48.694;9.476;2023-03-03T20:15:00;46.60;;;30.33;;
50012;SDS011;35901;48.694;9.476;2023-03-03T20:36:48;45.13;;;27.47;;
50012;SDS011;35901;48.694;9.476;2023-03-03T20:44:56;53.07;;;33.37;;
50012;SDS011;35901;48.694;9.476;2023-03-03T20:52:56;66.33;;;38.53;;
50012;SDS011;35901;48.694;9.476;2023-03-03T21:01:13;53.23;;;33.60;;
50012;SDS011;35901;48.694;9.476;2023-03-03T21:03:44;54.97;;;31.97;;
50012;SDS011;35901;48.694;9.476;2023-03-03T21:06:14;53.20;;;31.80;;
50012;SDS011;35901;48.694;9.476;2023-03-03T21:08:52;60.27;;;36.43;;
50012;SDS011;35901;48.694;9.476;2023-03-03T21:13:54;46.40;;;28.97;;